Time;durP1;ratioP1;P1;durP2;ratioP2;P2;SDS_P1;SDS_P2;PMS_P1;PMS_P2;Temp;Humidity;BMP_temperature;BMP_pressure;BME280_temperature;BME280_humidity;BME280_pressure;Samples;Min_cycle;Max_cycle;Signal;HPM_P1;HPM_P2
2022/04/19 13:41:41;;;;;;;8.77;4.45;;;17.70;67.50;;;;;;5152395;27;194286;-52
2022/04/19 13:44:10;;;;;;;8.35;4.90;;;17.60;66.80;;;;;;5136711;27;20909;-55
2022/04/19 13:46:37;;;;;;;6.90;5.25;;;17.70;69.20;;;;;;5145494;27;20085;-54
2022/04/19 13:49:04;;;;;;;8.98;4.72;;;17.80;67.40;;;;;;5136295;27;20038;-50
2022/04/19 13:51:30;;;;;;;11.02;5.15;;;17.80;67.30;;;;;;5148977;27;20160;-51
2022/04/19 13:53:57;;;;;;;6.90;5.00;;;17.90;68.10;;;;;;5145560;27;20505;-55
2022/04/19 13:56:24;;;;;;;9.48;5.07;;;18.00;67.90;;;;;;5140622;27;20039;-51
2022/04/19 13:58:50;;;;;;;8.43;6.18;;;17.80;67.90;;;;;;5145872;27;20434;-55
2022/04/19 14:01:17;;;;;;;10.15;5.70;;;17.70;68.80;;;;;;5144787;27;20134;-52
2022/04/19 14:03:44;;;;;;;7.88;5.80;;;17.60;69.30;;;;;;5141543;27;20166;-53
2022/04/19 14:06:11;;;;;;;10.55;6.70;;;17.50;70.70;;;;;;5145945;27;20059;-54
2022/04/19 14:08:38;;;;;;;9.35;6.28;;;17.70;71.30;;;;;;5145856;27;20084;-51
2022/04/19 14:11:06;;;;;;;9.55;6.65;;;17.80;70.00;;;;;;5145266;27;20035;-49
2022/04/19 14:13:33;;;;;;;9.60;6.13;;;17.80;70.30;;;;;;5145232;27;20097;-51
2022/04/19 14:16:00;;;;;;;13.93;7.43;;;17.80;70.60;;;;;;5150663;27;20103;-51
2022/04/19 14:18:27;;;;;;;14.57;8.05;;;17.80;70.60;;;;;;5147263;27;20027;-54
2022/04/19 14:20:54;;;;;;;10.82;7.60;;;17.70;72.10;;;;;;5140227;27;20035;-54
2022/04/19 14:23:20;;;;;;;12.75;7.47;;;17.60;71.80;;;;;;5146060;27;20039;-52
2022/04/19 14:25:48;;;;;;;9.90;7.88;;;17.60;72.80;;;;;;5137228;27;20042;-54
2022/04/19 14:28:15;;;;;;;12.43;8.70;;;17.70;72.70;;;;;;5146167;27;20477;-51
2022/04/19 14:33:27;;;;;;;12.13;8.00;;;17.70;73.30;;;;;;5150670;27;20039;-50
2022/04/19 14:35:53;;;;;;;12.35;8.18;;;17.70;73.90;;;;;;5146901;27;20043;-52
2022/04/19 14:38:20;;;;;;;13.52;8.50;;;17.90;73.90;;;;;;5143899;27;20050;-51
2022/04/19 14:40:47;;;;;;;12.88;8.45;;;17.90;73.30;;;;;;5146709;27;20477;-52
2022/04/19 14:43:14;;;;;;;10.77;7.85;;;17.70;72.70;;;;;;5146274;27;20031;-52
2022/04/19 14:45:44;;;;;;;11.07;7.60;;;17.60;74.00;;;;;;5143228;27;20371;-52
2022/04/19 14:48:11;;;;;;;9.63;6.80;;;17.60;73.90;;;;;;5145275;27;20446;-54
2022/04/19 14:53:31;;;;;;;9.82;6.70;;;17.70;74.00;;;;;;5132207;27;20443;-55
2022/04/19 14:55:58;;;;;;;11.38;6.43;;;17.70;73.40;;;;;;5133280;27;20043;-55
2022/04/19 14:58:25;;;;;;;11.85;6.53;;;17.80;73.40;;;;;;5129345;27;20070;-51
2022/04/19 15:00:52;;;;;;;11.55;6.45;;;17.90;73.40;;;;;;5133069;27;20117;-55
2022/04/19 15:03:19;;;;;;;10.63;6.05;;;17.80;72.90;;;;;;5132018;27;20450;-52
2022/04/19 15:05:45;;;;;;;8.23;6.07;;;17.80;72.80;;;;;;5125903;27;20084;-57
2022/04/19 15:08:12;;;;;;;7.82;6.18;;;17.80;73.30;;;;;;5124189;27;20032;-51
2022/04/19 15:10:42;;;;;;;9.52;6.43;;;17.90;73.30;;;;;;5134753;27;20508;-55
2022/04/19 15:13:14;;;;;;;9.50;6.15;;;18.00;73.10;;;;;;5135113;27;20046;-56
2022/04/19 15:15:41;;;;;;;7.78;5.72;;;18.00;72.80;;;;;;5127524;27;20547;-50
2022/04/19 15:18:07;;;;;;;11.93;6.10;;;18.00;72.80;;;;;;5133242;27;20047;-53
2022/04/19 15:20:34;;;;;;;12.93;7.30;;;18.10;72.80;;;;;;5134150;27;20035;-55
2022/04/19 15:23:01;;;;;;;9.65;6.60;;;18.00;72.70;;;;;;5134816;27;20031;-54
2022/04/19 15:25:28;;;;;;;9.93;7.00;;;18.00;72.10;;;;;;5133828;27;20038;-54
2022/04/19 15:27:55;;;;;;;7.15;5.85;;;17.90;73.00;;;;;;5135700;27;20039;-54
2022/04/19 15:30:22;;;;;;;8.48;6.35;;;17.90;73.30;;;;;;5133666;27;20058;-56
2022/04/19 15:32:49;;;;;;;12.07;6.72;;;17.90;72.90;;;;;;5135285;27;20074;-54
2022/04/19 15:35:15;;;;;;;9.57;5.80;;;17.70;73.20;;;;;;5131409;27;20385;-55
2022/04/19 15:37:42;;;;;;;8.05;5.88;;;17.50;73.70;;;;;;5133866;27;20125;-53
2022/04/19 15:40:09;;;;;;;9.05;5.97;;;17.50;74.00;;;;;;5130083;27;20139;-54
2022/04/19 15:42:36;;;;;;;8.70;6.22;;;17.70;74.00;;;;;;5127961;27;20078;-53
2022/04/19 15:45:03;;;;;;;10.70;6.28;;;17.80;74.10;;;;;;5135603;27;20088;-54
2022/04/19 15:47:29;;;;;;;14.70;6.40;;;17.80;74.30;;;;;;5126768;27;20050;-56
2022/04/19 15:49:56;;;;;;;13.02;6.10;;;17.90;74.50;;;;;;5134731;27;20432;-53
2022/04/19 15:52:23;;;;;;;11.43;7.25;;;17.90;74.30;;;;;;5125794;27;20038;-54
2022/04/19 15:54:51;;;;;;;14.05;7.90;;;17.60;74.40;;;;;;5134863;27;20091;-54
2022/04/19 15:57:18;;;;;;;17.38;7.00;;;17.40;75.10;;;;;;5134233;27;20035;-54
2022/04/19 15:59:45;;;;;;;11.40;7.20;;;17.40;75.10;;;;;;5130736;27;20031;-51
2022/04/19 16:02:12;;;;;;;12.77;7.53;;;17.20;75.30;;;;;;5132598;27;20043;-54
2022/04/19 16:04:38;;;;;;;11.35;7.20;;;17.10;76.20;;;;;;5129624;27;20046;-56
2022/04/19 16:07:05;;;;;;;12.73;7.75;;;17.30;76.80;;;;;;5128248;27;20039;-53
2022/04/19 16:09:32;;;;;;;12.25;8.30;;;17.30;75.90;;;;;;5135211;27;20096;-56
2022/04/19 16:11:59;;;;;;;14.10;7.40;;;17.20;76.10;;;;;;5135088;27;20046;-52
2022/04/19 16:14:25;;;;;;;14.68;7.72;;;17.20;76.50;;;;;;5128285;27;20043;-54
2022/04/19 16:25:29;;;;;;;12.30;7.20;;;17.00;76.90;;;;;;5125514;27;20039;-53
2022/04/19 16:27:55;;;;;;;8.95;6.63;;;17.00;77.30;;;;;;5121709;27;20039;-51
2022/04/19 16:30:22;;;;;;;9.48;7.20;;;17.00;77.60;;;;;;5130789;27;20039;-55
2022/04/19 16:32:49;;;;;;;12.63;7.38;;;17.10;77.40;;;;;;5127515;27;20429;-49
2022/04/19 16:35:16;;;;;;;10.85;6.57;;;17.10;76.90;;;;;;5134320;27;20046;-50
2022/04/19 16:37:43;;;;;;;13.20;7.28;;;17.10;77.10;;;;;;5134726;27;20476;-54
2022/04/19 16:40:09;;;;;;;12.93;7.45;;;17.10;77.30;;;;;;5116173;27;20067;-51
2022/04/19 16:42:37;;;;;;;12.93;7.70;;;16.90;76.60;;;;;;5130484;27;20043;-49
2022/04/19 16:45:03;;;;;;;8.75;7.22;;;16.90;77.20;;;;;;5131499;27;20039;-50
2022/04/19 16:47:30;;;;;;;11.73;7.40;;;16.80;76.80;;;;;;5130937;27;20089;-52
2022/04/19 16:49:57;;;;;;;9.70;7.00;;;16.80;76.20;;;;;;5134584;27;20115;-52
2022/04/19 16:52:23;;;;;;;12.13;6.28;;;16.70;76.30;;;;;;5134315;27;20047;-52
2022/04/19 16:54:50;;;;;;;10.02;7.25;;;16.60;75.60;;;;;;5128841;27;20493;-52
2022/04/19 16:57:17;;;;;;;8.93;6.95;;;16.60;75.70;;;;;;5134413;27;20046;-52
2022/04/19 16:59:44;;;;;;;11.23;5.90;;;16.50;75.80;;;;;;5127788;27;20096;-54
2022/04/19 17:02:11;;;;;;;10.00;6.13;;;16.50;74.60;;;;;;5126621;27;20443;-51
2022/04/19 17:04:37;;;;;;;8.70;5.03;;;16.50;75.10;;;;;;5127040;27;20035;-54
2022/04/19 17:07:05;;;;;;;8.10;3.63;;;16.50;74.00;;;;;;5134463;27;20035;-56
2022/04/19 17:09:33;;;;;;;6.35;2.97;;;16.40;71.90;;;;;;5127572;27;20118;-54
2022/04/19 17:12:04;;;;;;;6.47;2.50;;;16.30;72.10;;;;;;5127906;27;20561;-54
2022/04/19 17:14:30;;;;;;;5.72;2.30;;;16.40;71.50;;;;;;5133765;27;20528;-54
2022/04/19 17:16:57;;;;;;;6.03;2.20;;;16.40;69.70;;;;;;5133810;27;20039;-56
2022/04/19 17:19:24;;;;;;;3.60;2.13;;;16.50;69.20;;;;;;5133992;27;20122;-55
2022/04/19 17:21:50;;;;;;;7.50;2.22;;;16.60;68.90;;;;;;5133907;27;20038;-55
2022/04/19 17:24:17;;;;;;;4.72;2.15;;;16.60;67.90;;;;;;5127203;27;20537;-53
2022/04/19 17:26:45;;;;;;;7.38;2.50;;;16.50;68.70;;;;;;5123357;27;20040;-54
2022/04/19 17:29:11;;;;;;;5.20;2.40;;;16.40;69.00;;;;;;5127352;27;20461;-57
2022/04/19 17:31:38;;;;;;;6.30;2.15;;;16.50;68.80;;;;;;5126900;27;20035;-53
2022/04/19 17:34:05;;;;;;;5.93;2.28;;;16.60;68.60;;;;;;5133694;27;20097;-52
2022/04/19 17:36:32;;;;;;;5.57;2.10;;;16.70;68.80;;;;;;5133760;27;20053;-54
2022/04/19 17:38:59;;;;;;;5.40;1.88;;;16.90;68.30;;;;;;5134323;27;20121;-54
2022/04/19 17:41:27;;;;;;;5.90;1.77;;;17.00;67.40;;;;;;5126081;27;20047;-52
2022/04/19 17:43:53;;;;;;;4.22;1.60;;;17.00;67.80;;;;;;5133891;27;20036;-56
2022/04/19 17:46:20;;;;;;;4.90;2.22;;;16.90;67.70;;;;;;5133627;27;20043;-57
2022/04/19 17:48:47;;;;;;;3.97;1.85;;;16.80;68.20;;;;;;5133730;28;20393;-50
2022/04/19 17:56:45;;;;;;;;;;;16.50;67.40;;;;;;5127889;27;20035;-54
2022/04/19 17:59:12;;;;;;;5.82;1.88;;;16.30;67.50;;;;;;5131363;28;20030;-54
2022/04/19 18:01:42;;;;;;;4.65;1.70;;;16.30;67.90;;;;;;5132616;28;20043;-54
2022/04/19 18:04:08;;;;;;;4.13;1.73;;;16.20;67.10;;;;;;5132814;28;20047;-53
2022/04/19 18:06:35;;;;;;;4.75;1.73;;;16.10;67.60;;;;;;5133605;28;20441;-55
2022/04/19 18:09:02;;;;;;;7.72;1.85;;;16.00;67.60;;;;;;5133708;28;20039;-54
2022/04/19 18:11:29;;;;;;;6.20;1.60;;;16.00;67.90;;;;;;5133480;27;20066;-55
2022/04/19 18:13:55;;;;;;;4.15;1.70;;;16.00;67.40;;;;;;5133413;28;20405;-50
2022/04/19 18:16:22;;;;;;;4.28;1.50;;;15.90;66.70;;;;;;5132075;28;20095;-55
2022/04/19 18:18:49;;;;;;;6.18;1.67;;;15.80;66.80;;;;;;5133402;28;20039;-51
2022/04/19 18:21:16;;;;;;;7.05;1.63;;;15.80;67.20;;;;;;5133234;28;20046;-51
2022/04/19 18:26:28;;;;;;;6.93;1.83;;;15.70;66.50;;;;;;5126961;27;20065;-49
2022/04/19 18:28:54;;;;;;;6.43;2.20;;;15.70;66.10;;;;;;5125067;27;20110;-51
2022/04/19 18:31:23;;;;;;;6.55;1.55;;;15.70;66.00;;;;;;5128502;27;20497;-56
2022/04/19 18:33:51;;;;;;;5.60;1.90;;;15.60;66.20;;;;;;5136395;27;20039;-51
2022/04/19 18:36:18;;;;;;;6.28;1.80;;;15.50;66.50;;;;;;5135793;27;20039;-50
2022/04/19 18:38:44;;;;;;;5.50;1.90;;;15.50;66.90;;;;;;5137510;27;20092;-53
2022/04/19 18:41:11;;;;;;;4.35;1.60;;;15.40;66.60;;;;;;5136910;27;20493;-51
2022/04/19 18:43:38;;;;;;;4.22;1.70;;;15.20;67.30;;;;;;5136865;27;20140;-52
2022/04/19 18:46:05;;;;;;;5.90;2.35;;;15.10;68.00;;;;;;5137147;27;20054;-52
2022/04/19 18:48:32;;;;;;;4.53;1.70;;;15.00;68.20;;;;;;5131694;27;20035;-53
2022/04/19 18:50:58;;;;;;;4.47;1.85;;;15.00;68.70;;;;;;5137068;27;20482;-54
2022/04/19 18:53:25;;;;;;;6.22;1.75;;;15.00;69.00;;;;;;5129076;27;20063;-52
2022/04/19 18:55:52;;;;;;;6.65;1.67;;;14.80;69.60;;;;;;5132225;27;20039;-50
2022/04/19 18:58:19;;;;;;;7.10;1.67;;;14.80;69.90;;;;;;5129741;27;20080;-54
2022/04/19 19:00:46;;;;;;;6.47;1.80;;;14.70;70.00;;;;;;5125552;27;20490;-53
2022/04/19 19:03:14;;;;;;;6.55;2.25;;;14.60;70.20;;;;;;5132295;27;20424;-52
2022/04/19 19:05:40;;;;;;;4.55;2.03;;;14.50;70.70;;;;;;5133085;27;20522;-53
2022/04/19 19:08:07;;;;;;;6.63;2.25;;;14.50;70.90;;;;;;5133091;27;20062;-52
2022/04/19 19:10:34;;;;;;;5.82;1.60;;;14.40;71.20;;;;;;5135989;27;20054;-50
2022/04/19 19:13:01;;;;;;;4.60;1.85;;;14.30;71.40;;;;;;5135256;27;20061;-54
2022/04/19 19:15:28;;;;;;;4.95;2.20;;;14.30;71.60;;;;;;5124972;27;20454;-54
2022/04/19 19:17:55;;;;;;;3.65;1.83;;;14.20;71.90;;;;;;5125954;27;20396;-52
2022/04/19 19:20:22;;;;;;;5.80;1.88;;;14.10;72.40;;;;;;5125829;27;20062;-50
2022/04/19 19:22:49;;;;;;;6.50;1.90;;;14.10;72.70;;;;;;5130518;27;20450;-53
2022/04/19 19:25:16;;;;;;;5.03;1.95;;;14.10;73.00;;;;;;5125082;27;20111;-54
2022/04/19 19:27:43;;;;;;;3.92;1.80;;;14.00;73.10;;;;;;5126307;27;20035;-51
2022/04/19 19:30:10;;;;;;;5.10;2.00;;;14.00;73.60;;;;;;5123399;27;20070;-54
2022/04/19 19:32:37;;;;;;;4.55;1.80;;;13.90;73.70;;;;;;5126572;27;20040;-54
2022/04/19 19:35:04;;;;;;;4.53;1.80;;;13.90;74.10;;;;;;5129245;27;20039;-52
2022/04/19 19:37:32;;;;;;;4.57;2.42;;;13.90;74.20;;;;;;5126711;27;20501;-52
2022/04/19 19:40:03;;;;;;;6.30;1.98;;;13.80;74.50;;;;;;5130218;27;20041;-49
2022/04/19 19:42:29;;;;;;;5.10;2.22;;;13.70;74.80;;;;;;5128294;27;20075;-52
2022/04/19 19:44:57;;;;;;;4.88;2.67;;;13.70;75.20;;;;;;5127572;27;20027;-55
2022/04/19 19:47:23;;;;;;;6.43;2.83;;;13.70;75.00;;;;;;5125891;27;20039;-55
2022/04/19 19:49:50;;;;;;;6.43;2.83;;;13.70;75.60;;;;;;5133849;27;20390;-54
2022/04/19 19:52:17;;;;;;;6.00;2.80;;;13.60;75.50;;;;;;5129004;27;20052;-51
2022/04/19 19:54:44;;;;;;;6.75;2.75;;;13.60;75.60;;;;;;5133715;27;20047;-55
2022/04/19 19:57:10;;;;;;;5.45;2.20;;;13.50;75.60;;;;;;5125840;27;20118;-53
2022/04/19 19:59:37;;;;;;;4.40;2.20;;;13.50;75.90;;;;;;5129795;27;20062;-52
2022/04/19 20:02:04;;;;;;;4.90;2.03;;;13.40;76.00;;;;;;5144077;27;20027;-53
2022/04/19 20:04:31;;;;;;;6.43;2.10;;;13.30;75.80;;;;;;5130464;27;20047;-53
2022/04/19 20:06:58;;;;;;;4.38;2.03;;;13.30;76.40;;;;;;5132624;27;20122;-50
2022/04/19 20:09:25;;;;;;;3.35;2.13;;;13.30;76.50;;;;;;5133095;27;20053;-49
2022/04/19 20:11:52;;;;;;;10.43;2.30;;;13.20;76.70;;;;;;5128913;27;20050;-50
2022/04/19 20:14:19;;;;;;;5.47;2.10;;;13.20;77.30;;;;;;5132077;27;20836;-53
2022/04/19 20:16:46;;;;;;;6.38;2.42;;;13.10;77.30;;;;;;5129655;27;20403;-54
2022/04/19 20:19:13;;;;;;;6.53;2.33;;;13.00;77.80;;;;;;5133898;27;20491;-52
2022/04/19 20:21:39;;;;;;;8.75;2.50;;;13.00;77.80;;;;;;5128111;27;20070;-53
2022/04/19 20:24:10;;;;;;;5.72;2.05;;;13.00;78.00;;;;;;5128285;27;20027;-54
2022/04/19 20:26:37;;;;;;;5.15;2.22;;;13.00;78.20;;;;;;5128375;27;20035;-54
2022/04/19 20:29:03;;;;;;;4.05;2.20;;;12.90;78.30;;;;;;5131735;27;20527;-54
2022/04/19 20:31:31;;;;;;;6.03;2.05;;;12.90;78.50;;;;;;5129426;27;20044;-50
2022/04/19 20:33:58;;;;;;;5.50;2.22;;;12.80;78.50;;;;;;5125102;27;20036;-52
2022/04/19 20:36:25;;;;;;;7.38;2.20;;;12.80;78.80;;;;;;5125570;27;20051;-51
2022/04/19 20:38:53;;;;;;;4.30;2.03;;;12.80;78.80;;;;;;5126553;27;20074;-53
2022/04/19 20:41:20;;;;;;;6.28;2.30;;;12.70;78.90;;;;;;5117625;27;20502;-53
2022/04/19 20:43:46;;;;;;;4.53;2.08;;;12.60;79.10;;;;;;5121774;27;20040;-51
2022/04/19 20:46:13;;;;;;;4.30;1.70;;;12.60;79.20;;;;;;5134253;27;20039;-51
2022/04/19 20:51:25;;;;;;;3.60;2.20;;;12.50;79.80;;;;;;5127380;27;20067;-53
2022/04/19 20:53:52;;;;;;;4.63;2.10;;;12.50;80.30;;;;;;5130117;27;20367;-55
2022/04/19 20:56:19;;;;;;;5.72;2.58;;;12.50;80.50;;;;;;5131100;27;20042;-51
2022/04/19 20:58:46;;;;;;;4.72;2.28;;;12.50;80.80;;;;;;5129941;27;20115;-53
2022/04/19 21:01:12;;;;;;;4.88;2.17;;;12.50;80.90;;;;;;5131587;27;20039;-53
2022/04/19 21:03:39;;;;;;;4.30;2.22;;;12.50;81.00;;;;;;5128205;27;20035;-50
2022/04/19 21:06:06;;;;;;;5.20;2.20;;;12.50;81.10;;;;;;5130355;27;20039;-52
2022/04/19 21:08:33;;;;;;;4.53;2.30;;;12.50;81.40;;;;;;5119285;27;20117;-54
2022/04/19 21:10:59;;;;;;;5.75;2.55;;;12.40;81.50;;;;;;5120879;27;20462;-50
2022/04/19 21:13:26;;;;;;;4.90;2.22;;;12.40;82.10;;;;;;5126286;27;20125;-54
2022/04/19 21:15:53;;;;;;;4.28;2.38;;;12.30;82.80;;;;;;5127971;27;20473;-54
2022/04/19 21:18:22;;;;;;;7.32;2.55;;;12.30;83.30;;;;;;5130784;27;20113;-52
2022/04/19 21:20:53;;;;;;;6.03;3.15;;;12.20;83.20;;;;;;5130890;27;20086;-50
2022/04/19 21:23:20;;;;;;;5.80;2.13;;;12.20;83.40;;;;;;5133701;27;20039;-52
2022/04/19 21:25:47;;;;;;;5.70;2.20;;;12.20;83.10;;;;;;5132770;27;20035;-57
2022/04/19 21:28:34;;;;;;;5.07;2.65;;;12.20;83.20;;;;;;5121352;27;20131;-52
2022/04/19 21:31:00;;;;;;;7.53;2.80;;;12.10;83.50;;;;;;5134066;27;20067;-53
2022/04/19 21:33:27;;;;;;;6.97;3.03;;;12.10;84.40;;;;;;5126666;28;20050;-51
2022/04/19 21:35:54;;;;;;;5.45;3.55;;;12.00;85.60;;;;;;5131970;27;20043;-53
